createdAt,value
2018-11-27T00:02:49.698Z,3.50
2018-11-27T00:12:49.776Z,3.46
2018-11-27T00:22:49.751Z,3.38
2018-11-27T00:32:49.752Z,3.34
2018-11-27T00:42:50.201Z,3.28
2018-11-27T00:52:49.777Z,3.24
2018-11-27T01:02:49.755Z,3.22
2018-11-27T01:12:49.674Z,3.23
2018-11-27T01:22:49.637Z,3.08
2018-11-27T01:32:49.966Z,3.06
2018-11-27T01:42:49.712Z,3.05
2018-11-27T01:52:50.026Z,2.96
2018-11-27T02:02:50.022Z,2.91
2018-11-27T02:12:49.698Z,2.88
2018-11-27T02:22:49.801Z,2.82
2018-11-27T02:32:49.845Z,2.74
2018-11-27T02:42:49.703Z,2.69
2018-11-27T02:52:49.794Z,2.70
2018-11-27T03:02:50.377Z,2.65
2018-11-27T03:12:49.714Z,2.67
2018-11-27T03:22:49.726Z,2.71
2018-11-27T03:32:49.741Z,2.76
2018-11-27T03:42:49.733Z,2.84
2018-11-27T03:52:49.662Z,2.85
2018-11-27T04:02:50.741Z,2.81
2018-11-27T04:12:49.834Z,2.86
2018-11-27T04:22:49.760Z,2.88
2018-11-27T04:32:50.745Z,2.91
2018-11-27T04:42:49.673Z,2.96
2018-11-27T04:52:49.746Z,3.00
2018-11-27T05:02:49.689Z,3.06
2018-11-27T05:12:49.748Z,2.99
2018-11-27T05:22:49.690Z,2.96
2018-11-27T05:32:49.781Z,2.92
2018-11-27T05:42:49.649Z,2.89
2018-11-27T05:52:49.721Z,2.88
2018-11-27T06:02:49.711Z,2.85
2018-11-27T06:12:49.678Z,2.90
2018-11-27T06:22:49.730Z,2.86
2018-11-27T06:32:49.899Z,2.88
2018-11-27T06:42:49.769Z,2.82
2018-11-27T06:52:49.736Z,2.83
2018-11-27T07:02:50.567Z,2.80
2018-11-27T07:12:49.821Z,2.83
2018-11-27T07:22:49.788Z,2.82
2018-11-27T07:32:50.949Z,2.77
2018-11-27T07:42:49.912Z,2.74
2018-11-27T07:52:50.898Z,2.82
2018-11-27T08:02:49.667Z,2.91
2018-11-27T08:12:50.628Z,2.90
2018-11-27T08:22:49.668Z,2.91
2018-11-27T08:32:49.961Z,2.99
2018-11-27T08:42:49.687Z,3.06
2018-11-27T08:52:49.569Z,3.22
2018-11-27T09:02:49.699Z,3.21
2018-11-27T09:12:49.633Z,3.26
2018-11-27T09:22:49.853Z,3.23
2018-11-27T09:32:49.624Z,3.23
2018-11-27T09:42:49.780Z,3.27
2018-11-27T09:52:49.792Z,3.39
2018-11-27T10:02:50.082Z,3.60
2018-11-27T10:12:49.613Z,3.60
2018-11-27T10:22:49.775Z,3.71
2018-11-27T10:32:49.687Z,3.94
2018-11-27T10:42:50.010Z,4.06
2018-11-27T10:52:49.598Z,3.99
2018-11-27T11:02:52.798Z,4.10
2018-11-27T11:12:49.583Z,4.61
2018-11-27T11:22:49.546Z,4.74
2018-11-27T11:32:49.618Z,4.70
2018-11-27T11:42:49.538Z,4.78
2018-11-27T11:52:49.643Z,5.02
2018-11-27T12:02:49.749Z,4.94
2018-11-27T12:12:49.596Z,4.75
2018-11-27T12:22:49.645Z,4.82
2018-11-27T12:32:49.588Z,4.87
2018-11-27T12:42:49.616Z,4.78
2018-11-27T12:52:49.965Z,4.79
2018-11-27T13:02:49.581Z,5.09
2018-11-27T13:12:49.727Z,5.22
2018-11-27T13:22:49.939Z,5.18
2018-11-27T13:32:49.768Z,5.24
2018-11-27T13:42:49.809Z,5.24
2018-11-27T13:52:49.697Z,5.18
2018-11-27T14:02:49.483Z,5.12
2018-11-27T14:12:49.570Z,5.10
2018-11-27T14:22:49.614Z,5.05
2018-11-27T14:32:49.563Z,5.00
2018-11-27T14:42:49.549Z,4.97
2018-11-27T14:52:49.596Z,4.98
2018-11-27T15:02:49.588Z,4.90
2018-11-27T15:12:49.583Z,4.85
2018-11-27T15:22:49.632Z,4.83
2018-11-27T15:32:49.594Z,4.88
2018-11-27T15:42:49.620Z,4.92
2018-11-27T15:52:49.479Z,4.93
2018-11-27T16:02:49.694Z,4.92
2018-11-27T16:12:49.634Z,4.84
2018-11-27T16:22:49.592Z,4.68
2018-11-27T16:32:49.614Z,4.50
2018-11-27T16:42:49.635Z,4.32
2018-11-27T16:52:49.517Z,4.29
2018-11-27T17:02:50.304Z,4.08
2018-11-27T17:12:49.619Z,3.75
2018-11-27T17:22:49.585Z,3.58
2018-11-27T17:32:49.569Z,3.49
2018-11-27T17:42:49.594Z,3.01
2018-11-27T17:52:49.637Z,3.16
2018-11-27T18:02:49.468Z,3.17
2018-11-27T18:12:49.608Z,3.20
2018-11-27T18:22:49.512Z,3.48
2018-11-27T18:32:49.555Z,3.50
2018-11-27T18:42:49.554Z,3.64
2018-11-27T18:52:49.518Z,3.60
2018-11-27T19:02:49.790Z,3.51
2018-11-27T19:12:49.601Z,3.52
2018-11-27T19:22:49.832Z,3.43
2018-11-27T19:32:49.530Z,3.36
2018-11-27T19:42:49.675Z,3.18
2018-11-27T19:52:49.578Z,3.10
2018-11-27T20:02:49.540Z,3.00
2018-11-27T20:12:49.620Z,3.07
2018-11-27T20:22:49.609Z,3.02
2018-11-27T20:32:49.571Z,2.94
2018-11-27T20:42:49.535Z,3.14
2018-11-27T20:52:49.571Z,3.10
2018-11-27T21:02:50.315Z,2.97
2018-11-27T21:12:49.489Z,2.89
2018-11-27T21:22:49.537Z,2.80
2018-11-27T21:32:49.549Z,3.00
2018-11-27T21:42:49.403Z,3.09
2018-11-27T21:52:49.533Z,3.08
2018-11-27T22:02:49.496Z,2.94
2018-11-27T22:12:49.539Z,2.72
2018-11-27T22:22:49.526Z,2.86
2018-11-27T22:32:49.490Z,3.08
2018-11-27T22:42:49.819Z,3.13
2018-11-27T22:52:49.509Z,3.25
2018-11-27T23:02:49.551Z,3.40
2018-11-27T23:12:49.427Z,3.57
2018-11-27T23:22:49.561Z,3.31
2018-11-27T23:32:49.532Z,3.01
2018-11-27T23:42:49.558Z,2.97
2018-11-27T23:52:49.469Z,3.57
